createdAt,value
2022-10-11T00:05:29.916Z,71.18
2022-10-11T00:11:31.824Z,70.39
2022-10-11T00:17:34.277Z,69.42
2022-10-11T00:23:36.496Z,72.50
2022-10-11T00:29:38.604Z,69.90
2022-10-11T00:35:41.846Z,69.73
2022-10-11T00:41:43.603Z,69.33
2022-10-11T00:47:45.323Z,69.47
2022-10-11T00:53:50.963Z,69.15
2022-10-11T00:59:55.185Z,77.97
2022-10-11T01:05:57.066Z,72.48
2022-10-11T01:12:00.677Z,69.53
2022-10-11T01:18:14.733Z,68.76
2022-10-11T01:24:22.481Z,75.93
2022-10-11T01:30:27.703Z,72.14
2022-10-11T01:36:40.551Z,70.56
2022-10-11T01:42:43.924Z,69.12
2022-10-11T01:48:55.752Z,70.42
2022-10-11T01:55:21.702Z,71.18
2022-10-11T02:01:29.995Z,70.04
2022-10-11T02:07:52.150Z,70.67
2022-10-11T02:14:00.600Z,72.50
2022-10-11T02:20:09.673Z,70.76
2022-10-11T02:26:14.755Z,72.09
2022-10-11T02:32:17.829Z,71.06
2022-10-11T02:38:24.989Z,71.01
2022-10-11T02:44:35.474Z,70.54
2022-10-11T02:50:39.811Z,72.33
2022-10-11T02:56:41.841Z,72.25
2022-10-11T03:02:43.772Z,70.35
2022-10-11T03:08:45.687Z,71.09
2022-10-11T03:14:47.523Z,70.43
2022-10-11T03:20:49.330Z,71.94
2022-10-11T03:26:51.394Z,70.33
2022-10-11T03:32:53.266Z,77.46
2022-10-11T03:38:55.070Z,72.85
2022-10-11T03:44:57.411Z,71.15
2022-10-11T03:50:59.266Z,71.96
2022-10-11T03:57:01.070Z,71.62
2022-10-11T04:03:06.134Z,71.24
2022-10-11T04:09:07.947Z,75.67
2022-10-11T04:15:13.550Z,73.17
2022-10-11T04:21:15.598Z,75.63
2022-10-11T04:27:17.643Z,73.63
2022-10-11T04:33:19.487Z,71.96
2022-10-11T04:39:21.368Z,76.99
2022-10-11T04:45:23.293Z,74.90
2022-10-11T04:51:25.491Z,72.31
2022-10-11T04:57:27.498Z,72.41
2022-10-11T05:03:29.710Z,72.95
2022-10-11T05:09:31.579Z,72.49
2022-10-11T05:15:34.110Z,72.52
2022-10-11T05:21:36.088Z,73.32
2022-10-11T05:27:38.160Z,74.44
2022-10-11T05:33:46.450Z,73.64
2022-10-11T05:46:07.488Z,76.53
2022-10-11T05:52:10.808Z,75.86
2022-10-11T05:58:18.813Z,76.08
2022-10-11T06:04:20.686Z,76.09
2022-10-11T06:10:22.526Z,76.39
2022-10-11T06:16:25.195Z,75.71
2022-10-11T06:22:27.608Z,75.73
2022-10-11T06:28:29.875Z,76.02
2022-10-11T06:34:31.655Z,73.51
2022-10-11T06:40:33.405Z,73.64
2022-10-11T06:46:35.136Z,73.22
2022-10-11T06:52:37.022Z,74.56
2022-10-11T06:58:40.025Z,72.02
2022-10-11T07:04:41.823Z,72.43
2022-10-11T07:10:43.756Z,72.14
2022-10-11T07:16:45.587Z,71.33
2022-10-11T07:22:47.474Z,70.51
2022-10-11T07:28:49.402Z,69.79
2022-10-11T07:34:51.172Z,69.07
2022-10-11T07:40:52.918Z,68.31
2022-10-11T07:46:54.634Z,68.55
2022-10-11T07:52:56.466Z,67.97
2022-10-11T07:59:01.730Z,65.56
2022-10-11T08:05:03.963Z,65.41
2022-10-11T08:11:06.516Z,65.12
2022-10-11T08:17:09.424Z,63.38
2022-10-11T08:23:11.534Z,62.38
2022-10-11T08:29:14.559Z,61.84
2022-10-11T08:35:17.223Z,61.61
2022-10-11T08:41:55.623Z,60.59
2022-10-11T08:48:30.634Z,59.86
2022-10-11T08:54:48.472Z,57.52
2022-10-11T09:01:00.220Z,55.97
2022-10-11T09:07:20.252Z,55.82
2022-10-11T09:27:18.672Z,53.57
2022-10-11T16:24:06.954Z,52.42
2022-10-11T16:30:12.259Z,52.29
2022-10-11T16:36:41.726Z,52.87
2022-10-11T16:42:45.993Z,53.17
2022-10-11T16:48:50.232Z,54.06
2022-10-11T16:54:52.120Z,54.89
2022-10-11T17:00:54.224Z,54.82
2022-10-11T17:06:56.723Z,56.21
2022-10-11T17:12:58.582Z,56.97
2022-10-11T17:19:00.900Z,58.59
2022-10-11T17:25:03.908Z,57.22
2022-10-11T17:31:06.297Z,58.53
2022-10-11T17:37:10.220Z,59.57
2022-10-11T17:43:12.110Z,59.03
2022-10-11T17:49:14.639Z,59.95
2022-10-11T17:55:16.853Z,59.58
2022-10-11T18:01:21.207Z,59.81
2022-10-11T18:07:24.389Z,63.36
2022-10-11T18:13:26.294Z,63.23
2022-10-11T18:19:28.337Z,63.99
2022-10-11T18:25:33.696Z,61.93
2022-10-11T18:31:36.063Z,63.24
2022-10-11T18:37:38.085Z,62.99
2022-10-11T18:43:40.021Z,61.44
2022-10-11T18:49:41.954Z,62.00
2022-10-11T18:55:43.764Z,63.64
2022-10-11T19:01:46.382Z,63.03
2022-10-11T19:07:48.408Z,64.07
2022-10-11T19:13:58.473Z,62.75
2022-10-11T19:20:00.328Z,62.59
2022-10-11T19:26:02.723Z,64.39
2022-10-11T19:32:04.963Z,62.72
2022-10-11T19:38:06.805Z,65.46
2022-10-11T19:44:08.988Z,63.39
2022-10-11T19:50:10.931Z,62.98
2022-10-11T19:56:15.758Z,63.38
2022-10-11T20:02:17.527Z,64.34
2022-10-11T20:08:19.411Z,64.71
2022-10-11T20:14:21.389Z,69.46
2022-10-11T20:20:23.191Z,67.55
2022-10-11T20:26:26.674Z,64.42
2022-10-11T20:32:28.760Z,66.29
2022-10-11T20:38:32.164Z,65.56
2022-10-11T20:44:33.993Z,64.18
2022-10-11T20:50:35.934Z,73.27
2022-10-11T20:56:38.807Z,73.45
2022-10-11T21:02:40.563Z,68.15
2022-10-11T21:08:42.524Z,67.19
2022-10-11T21:14:44.658Z,68.08
2022-10-11T21:20:46.729Z,66.63
2022-10-11T21:26:48.508Z,66.95
2022-10-11T21:32:51.081Z,72.98
2022-10-11T21:38:53.430Z,68.60
2022-10-11T21:44:55.250Z,67.43
2022-10-11T21:50:57.044Z,69.29
2022-10-11T21:56:58.872Z,68.57
2022-10-11T22:03:00.649Z,67.41
2022-10-11T22:09:03.918Z,68.35
2022-10-11T22:15:06.476Z,67.68
2022-10-11T22:21:13.705Z,69.89
2022-10-11T22:27:15.686Z,71.61
2022-10-11T22:33:17.513Z,70.62
2022-10-11T22:39:19.358Z,69.41
2022-10-11T22:45:21.226Z,70.83
2022-10-11T22:51:23.342Z,75.13
2022-10-11T22:57:25.333Z,75.12
2022-10-11T23:03:27.221Z,70.74
2022-10-11T23:09:29.194Z,69.05
2022-10-11T23:15:31.037Z,69.51
2022-10-11T23:21:32.859Z,72.61
2022-10-11T23:27:34.846Z,69.39
2022-10-11T23:33:37.140Z,69.26
2022-10-11T23:39:38.997Z,71.87
2022-10-11T23:45:40.778Z,72.11
2022-10-11T23:51:42.610Z,73.22
2022-10-11T23:57:44.447Z,70.52
